This is the latest recevied weather packets stored in our database for station/object KB6HGN. If no packets are shown the sender has not sent any weather packets the latest 10 day(s).
| Time | Temp. | Humidity | Pressure | Rain* | Wind** | Luminosity | Snow |
|---|---|---|---|---|---|---|---|
| 1778096405 | 23.33° C | 41% | 1017.9 hPa | 0 mm | - | 950 W/m² | - |
| 1778092804 | 20.56° C | 45% | 1018.9 hPa | 0 mm | - | 911 W/m² | - |
| 1778090407 | 20° C | 48% | 1019 hPa | 0 mm | - | 861 W/m² | - |
| 1778088603 | 18.89° C | 50% | 1019 hPa | 0 mm | - | 808 W/m² | - |
| 1778084104 | 16.11° C | 60% | 1019.3 hPa | 0 mm | - | 595 W/m² | - |
| 1778081704 | 15° C | 65% | 1018.9 hPa | 0 mm | - | 450 W/m² | - |
| 1778079303 | 13.33° C | 72% | 1019.3 hPa | 0 mm | - | 239 W/m² | - |
| 1778078704 | 13.33° C | 72% | 1019.3 hPa | 0 mm | - | 176 W/m² | - |
| 1778077204 | 12.22° C | 75% | 1019 hPa | 0 mm | - | 69 W/m² | - |
| 1778075404 | 11.11° C | 82% | 1018.9 hPa | 0 mm | - | 19 W/m² | - |
| 1778074205 | 10.56° C | 84% | 1018.6 hPa | 0 mm | - | 6 W/m² | - |
| 1778072704 | 10° C | 84% | 1018.3 hPa | 0 mm | - | 0 W/m² | - |
| 1778070904 | 10° C | 84% | 1018.3 hPa | 0 mm | - | 0 W/m² | - |
| 1778069405 | 10° C | 83% | 1018.3 hPa | 0 mm | - | 0 W/m² | - |
| 1778068505 | 10° C | 82% | 1018.3 hPa | 0 mm | - | 0 W/m² | - |
| 1778067004 | 10.56° C | 82% | 1018.3 hPa | 0 mm | - | 0 W/m² | - |
| 1778066404 | 10.56° C | 81% | 1017.9 hPa | 0 mm | - | 0 W/m² | - |
| 1778063404 | 10.56° C | 79% | 1017.9 hPa | 0 mm | - | 0 W/m² | - |
| 1778063104 | 11.11° C | 79% | 1017.9 hPa | 0 mm | - | 0 W/m² | - |
| 1778061904 | 11.67° C | 79% | 1017.9 hPa | 0 mm | - | 0 W/m² | - |
| 1778058604 | 11.67° C | 78% | 1017.9 hPa | 0 mm | - | 0 W/m² | - |
| 1778056206 | 11.67° C | 77% | 1018.3 hPa | 0 mm | - | 0 W/m² | - |
| 1778055304 | 11.67° C | 77% | 1018.2 hPa | 0 mm | - | 0 W/m² | - |
| 1778054704 | 12.22° C | 76% | 1018.3 hPa | 0 mm | - | 0 W/m² | - |
| 1778054403 | 12.22° C | 76% | 1018.3 hPa | 0 mm | - | 0 W/m² | - |
* Rain latest hour (hover to see other rain measurements)
** Current wind speed in m/s (hover to see current wind gust speed)